createdAt,value
2022-10-29T02:34:49.183Z,19.65
2022-10-29T07:31:31.170Z,20.54
2022-10-29T07:34:54.016Z,20.50
2022-10-29T07:45:20.155Z,20.58
2022-10-29T07:47:46.212Z,20.51
2022-10-29T07:50:23.854Z,20.72
2022-10-29T07:59:29.757Z,20.80
2022-10-29T08:02:04.868Z,20.76
2022-10-29T08:18:27.241Z,21.11
2022-10-29T08:41:38.761Z,21.61
2022-10-29T08:45:04.655Z,21.64
2022-10-29T08:48:13.195Z,21.76
2022-10-29T08:54:42.056Z,21.84
2022-10-29T09:07:40.114Z,21.99
2022-10-29T09:10:13.068Z,21.95
2022-10-29T09:13:32.710Z,21.97
2022-10-29T09:16:18.892Z,22.00
2022-10-29T09:19:34.515Z,22.12
2022-10-29T09:26:21.483Z,22.17
2022-10-29T09:28:57.074Z,22.24
2022-10-29T09:31:50.044Z,22.16
2022-10-29T09:34:30.883Z,22.30
2022-10-29T09:37:55.864Z,22.27
2022-10-29T09:52:57.037Z,22.29
2022-10-29T10:03:07.118Z,22.36
2022-10-29T10:06:24.421Z,22.41
2022-10-29T10:09:34.152Z,22.50
2022-10-29T10:12:08.310Z,22.47
2022-10-29T10:17:55.441Z,22.58
2022-10-29T10:20:44.089Z,22.59
2022-10-29T10:23:24.585Z,22.62
2022-10-29T10:26:05.238Z,22.58
2022-10-29T10:32:49.005Z,22.71
2022-10-29T10:38:45.462Z,22.71
2022-10-29T10:41:26.174Z,22.62
2022-10-29T10:43:55.504Z,22.70
2022-10-29T10:46:27.185Z,22.76
2022-10-29T10:49:56.784Z,22.76
2022-10-29T10:52:36.664Z,22.86
2022-10-29T10:59:06.988Z,23.00
2022-10-29T11:01:38.249Z,23.14
2022-10-29T11:07:59.457Z,23.22
2022-10-29T11:10:53.591Z,23.30
2022-10-29T11:13:38.112Z,23.29
2022-10-29T11:16:14.217Z,23.22
2022-10-29T11:21:58.371Z,23.10
2022-10-29T11:24:45.760Z,22.83
2022-10-29T11:30:57.516Z,22.92
2022-10-29T11:34:01.656Z,22.90
2022-10-29T11:36:53.230Z,22.98
2022-10-29T11:39:28.866Z,22.92
2022-10-29T11:41:58.271Z,22.95
2022-10-29T11:44:40.686Z,23.02
2022-10-29T11:47:28.600Z,22.95
2022-10-29T11:50:52.985Z,22.82
2022-10-29T11:53:50.214Z,22.91
2022-10-29T11:56:25.752Z,22.90
2022-10-29T11:58:55.957Z,22.97
2022-10-29T12:01:29.283Z,22.95
2022-10-29T12:04:30.684Z,22.94
2022-10-29T12:07:38.340Z,22.96
2022-10-29T12:11:03.649Z,22.93
2022-10-29T12:13:57.660Z,22.85
2022-10-29T12:17:06.401Z,22.89
2022-10-29T12:19:55.804Z,22.86
2022-10-29T12:22:35.873Z,22.62
2022-10-29T12:25:46.429Z,22.61
2022-10-29T12:28:58.359Z,22.66
2022-10-29T12:31:47.907Z,22.84
2022-10-29T12:34:25.093Z,22.80
2022-10-29T12:37:11.379Z,22.92
2022-10-29T12:39:51.010Z,23.00
2022-10-29T12:42:27.263Z,23.10
2022-10-29T12:45:10.111Z,23.16
2022-10-29T12:48:14.157Z,23.00
2022-10-29T12:50:52.529Z,23.03
2022-10-29T12:53:42.991Z,23.17
2022-10-29T12:56:16.250Z,23.16
2022-10-29T12:58:53.114Z,23.11
2022-10-29T13:02:10.453Z,23.23
2022-10-29T13:05:57.286Z,23.18
2022-10-29T13:08:41.951Z,23.01
2022-10-29T13:12:22.554Z,23.09
2022-10-29T13:15:01.705Z,22.98
2022-10-29T13:17:37.127Z,23.10
2022-10-29T13:31:49.301Z,23.43
2022-10-29T13:38:52.393Z,23.52
2022-10-29T13:44:34.955Z,23.39
2022-10-29T13:48:05.251Z,23.28
2022-10-29T13:51:32.863Z,23.30
2022-10-29T14:00:40.361Z,23.06
2022-10-29T14:04:09.026Z,23.01
2022-10-29T14:06:47.317Z,22.89
2022-10-29T14:09:43.141Z,22.74
2022-10-29T14:12:58.262Z,22.74
2022-10-29T14:15:32.665Z,22.96
2022-10-29T14:29:15.099Z,23.34
2022-10-29T14:35:38.959Z,23.48
2022-10-29T14:41:30.012Z,23.32
2022-10-29T14:44:06.148Z,23.20
2022-10-29T14:46:51.957Z,23.10
2022-10-29T14:49:24.427Z,22.95
2022-10-29T14:51:58.214Z,22.87
2022-10-29T14:54:38.689Z,22.74
2022-10-29T14:59:02.518Z,22.80
2022-10-29T15:00:28.639Z,22.79
2022-10-29T15:05:48.739Z,22.70
2022-10-29T15:08:19.241Z,22.75
2022-10-29T15:14:38.017Z,22.62
2022-10-29T15:28:31.174Z,22.40
2022-10-29T15:40:10.836Z,22.20
2022-10-29T15:45:36.733Z,22.18
2022-10-29T15:48:38.955Z,22.15
2022-10-29T15:51:10.411Z,22.10
2022-10-29T15:57:48.433Z,22.20
2022-10-29T16:00:17.332Z,22.36
2022-10-29T16:09:57.060Z,22.37
2022-10-29T16:12:25.373Z,22.33
2022-10-29T16:15:00.789Z,22.36
2022-10-29T16:21:41.191Z,22.19
2022-10-29T16:24:14.249Z,22.14
2022-10-29T16:26:42.522Z,22.13
2022-10-29T16:29:12.796Z,21.99
2022-10-29T16:31:45.248Z,22.02
2022-10-29T16:34:15.157Z,21.91
2022-10-29T16:39:44.418Z,21.70
2022-10-29T16:46:36.009Z,21.47
2022-10-29T16:54:16.366Z,21.29
2022-10-29T16:57:56.341Z,21.17
2022-10-29T17:00:43.535Z,21.10
2022-10-29T17:04:08.682Z,21.02
2022-10-29T17:06:50.795Z,20.94
2022-10-29T17:16:54.670Z,20.98
2022-10-29T17:26:08.271Z,20.77
2022-10-29T17:28:41.818Z,20.76
2022-10-29T17:31:41.088Z,20.69
2022-10-29T17:38:01.483Z,20.65
2022-10-29T17:48:31.359Z,20.52
2022-10-29T17:54:33.982Z,20.43
2022-10-29T18:00:25.761Z,20.33
2022-10-29T18:02:56.729Z,20.29
2022-10-29T18:05:35.555Z,20.17
2022-10-29T18:08:38.475Z,20.13
2022-10-29T18:11:43.870Z,19.99
2022-10-29T18:14:34.760Z,20.02
2022-10-29T18:24:41.780Z,19.95
2022-10-29T18:27:59.664Z,20.06
2022-10-29T18:31:04.071Z,19.98
2022-10-29T18:33:57.492Z,19.99
2022-10-29T18:36:46.108Z,19.83
2022-10-29T18:39:46.249Z,20.01
2022-10-29T18:42:39.181Z,19.84
2022-10-29T18:46:16.155Z,19.92
2022-10-29T18:49:09.563Z,19.87
2022-10-29T18:52:26.061Z,19.73
2022-10-29T18:55:09.327Z,19.80
2022-10-29T18:58:17.073Z,19.82
2022-10-29T19:04:51.628Z,19.76
2022-10-29T19:07:43.492Z,19.71
2022-10-29T19:10:36.213Z,19.60
2022-10-29T19:13:10.587Z,19.61
2022-10-29T19:15:39.529Z,19.54
2022-10-29T19:18:11.415Z,19.54
2022-10-29T19:20:39.435Z,19.49
2022-10-29T19:23:09.792Z,19.36
2022-10-29T19:25:43.289Z,19.39
2022-10-29T19:31:38.579Z,19.26
2022-10-29T19:34:48.247Z,19.09
2022-10-29T19:38:07.108Z,19.28
2022-10-29T19:40:51.953Z,19.22
2022-10-29T19:46:27.578Z,19.11
2022-10-29T19:49:18.464Z,19.05
2022-10-29T19:54:50.349Z,19.20
2022-10-29T19:57:25.662Z,19.06
2022-10-29T19:59:53.972Z,19.19
2022-10-29T20:02:39.006Z,19.21
2022-10-29T20:05:10.247Z,19.22
2022-10-29T20:07:39.374Z,19.23
2022-10-29T20:10:17.903Z,19.23
2022-10-29T20:12:47.252Z,19.21
2022-10-29T20:15:23.012Z,19.22
2022-10-29T20:22:33.740Z,19.10
2022-10-29T20:25:09.215Z,19.12
2022-10-29T20:32:12.355Z,19.03
2022-10-29T20:46:14.968Z,19.00
2022-10-29T20:48:58.262Z,19.00
2022-10-29T20:51:44.586Z,18.94
2022-10-29T20:54:25.301Z,18.98
2022-10-29T20:57:15.339Z,18.97
2022-10-29T21:00:03.377Z,19.03
2022-10-29T21:05:55.807Z,18.99
2022-10-29T21:11:58.194Z,18.88
2022-10-29T21:14:59.419Z,19.04
2022-10-29T21:17:43.149Z,18.86
2022-10-29T21:20:26.463Z,19.02
2022-10-29T21:23:18.657Z,19.01
2022-10-29T21:26:20.890Z,18.99
2022-10-29T21:29:03.558Z,19.06
2022-10-29T21:32:05.558Z,19.06
2022-10-29T21:37:49.727Z,19.13
2022-10-29T21:40:54.789Z,18.97
2022-10-29T21:43:32.569Z,19.16
2022-10-29T21:46:24.975Z,19.08
2022-10-29T21:49:00.671Z,19.19
2022-10-29T21:51:54.539Z,19.23
2022-10-29T21:54:28.288Z,19.23
2022-10-29T21:57:26.385Z,19.15
2022-10-29T22:00:15.465Z,19.26
2022-10-29T22:02:53.075Z,19.33
2022-10-29T22:05:36.508Z,19.32
2022-10-29T22:08:18.789Z,19.27
2022-10-29T22:11:06.496Z,19.22
2022-10-29T22:14:21.812Z,19.33
2022-10-29T22:17:20.395Z,19.27
2022-10-29T22:19:48.489Z,19.36
2022-10-29T22:22:23.727Z,19.39
2022-10-29T22:25:30.467Z,19.25
2022-10-29T22:28:11.980Z,19.38
2022-10-29T22:31:00.619Z,19.42
2022-10-29T22:33:48.792Z,19.37
2022-10-29T22:39:42.096Z,19.52
2022-10-29T22:42:30.473Z,19.52
2022-10-29T22:45:02.207Z,19.40
2022-10-29T22:47:48.348Z,19.49
2022-10-29T22:50:48.058Z,19.38
2022-10-29T22:53:31.518Z,19.39
2022-10-29T22:56:12.851Z,19.44
2022-10-29T22:59:01.303Z,19.36
2022-10-29T23:01:30.412Z,19.51
2022-10-29T23:04:03.434Z,19.47
2022-10-29T23:06:37.460Z,19.48
2022-10-29T23:09:19.392Z,19.32
2022-10-29T23:11:56.663Z,19.43
2022-10-29T23:14:40.091Z,19.35
2022-10-29T23:20:21.843Z,19.36
2022-10-29T23:22:56.175Z,19.35
2022-10-29T23:28:55.600Z,19.27
2022-10-29T23:31:35.567Z,19.41
2022-10-29T23:34:17.324Z,19.38
2022-10-29T23:39:57.683Z,19.55
2022-10-29T23:42:51.924Z,19.56
2022-10-29T23:45:31.667Z,19.47
2022-10-29T23:51:45.957Z,19.62
2022-10-29T23:54:30.970Z,19.42
2022-10-29T23:57:04.273Z,19.56
